createdAt,value
2022-11-29T00:03:01.543Z,101295.62
2022-11-29T00:08:05.151Z,101291.13
2022-11-29T00:13:11.089Z,101298.38
2022-11-29T00:18:14.362Z,101300.27
2022-11-29T00:23:18.623Z,101300.69
2022-11-29T00:28:21.840Z,101298.89
2022-11-29T00:33:25.084Z,101296.52
2022-11-29T00:38:28.450Z,101298.29
2022-11-29T00:43:31.744Z,101299.88
2022-11-29T00:48:36.075Z,101298.16
2022-11-29T00:53:39.800Z,101296.30
2022-11-29T00:58:43.890Z,101299.81
2022-11-29T01:03:47.451Z,101298.71
2022-11-29T01:08:51.254Z,101296.66
2022-11-29T01:13:57.572Z,101293.07
2022-11-29T01:19:01.419Z,101293.05
2022-11-29T01:24:05.864Z,101285.00
2022-11-29T01:29:13.438Z,101284.11
2022-11-29T01:34:16.669Z,101282.77
2022-11-29T01:39:19.847Z,101283.29
2022-11-29T01:44:23.340Z,101276.24
2022-11-29T01:49:34.549Z,101276.56
2022-11-29T01:54:44.073Z,101278.81
2022-11-29T01:59:51.670Z,101275.20
2022-11-29T02:04:55.185Z,101270.80
2022-11-29T02:09:58.711Z,101267.24
2022-11-29T02:15:33.002Z,101264.67
2022-11-29T02:20:46.309Z,101266.55
2022-11-29T02:26:17.380Z,101267.43
2022-11-29T02:31:52.182Z,101269.66
2022-11-29T02:37:33.133Z,101275.75
2022-11-29T02:42:56.622Z,101273.81
2022-11-29T02:48:38.063Z,101273.42
2022-11-29T02:53:48.152Z,101277.33
2022-11-29T02:59:09.500Z,101279.51
2022-11-29T03:04:38.263Z,101280.25
2022-11-29T03:09:54.815Z,101284.35
2022-11-29T03:15:03.781Z,101285.20
2022-11-29T03:20:28.851Z,101285.08
2022-11-29T03:25:48.481Z,101284.14
2022-11-29T03:31:16.555Z,101286.02
2022-11-29T03:36:42.541Z,101289.30
2022-11-29T03:42:06.326Z,101292.17
2022-11-29T03:47:24.080Z,101290.95
2022-11-29T03:52:35.875Z,101294.09
2022-11-29T03:57:54.332Z,101297.65
2022-11-29T04:03:09.379Z,101301.38
2022-11-29T04:08:31.041Z,101300.45
2022-11-29T04:13:37.965Z,101303.95
2022-11-29T04:19:24.949Z,101301.05
2022-11-29T04:24:45.475Z,101299.52
2022-11-29T04:30:15.137Z,101306.78
2022-11-29T04:35:33.499Z,101315.92
2022-11-29T04:41:25.080Z,101314.93
2022-11-29T04:46:49.516Z,101314.03
2022-11-29T04:52:01.599Z,101318.80
2022-11-29T04:57:14.126Z,101321.60
2022-11-29T05:02:54.020Z,101324.39
2022-11-29T05:08:15.908Z,101320.42
2022-11-29T05:13:43.555Z,101323.47
2022-11-29T05:19:08.583Z,101329.48
2022-11-29T05:24:34.252Z,101326.52
2022-11-29T05:29:46.524Z,101329.32
2022-11-29T05:35:15.797Z,101331.89
2022-11-29T05:40:27.862Z,101336.32
2022-11-29T05:46:08.601Z,101337.55
2022-11-29T05:51:39.330Z,101338.09
2022-11-29T05:57:05.609Z,101340.23
2022-11-29T06:02:11.570Z,101342.08
2022-11-29T06:07:59.794Z,101339.66
2022-11-29T06:13:44.884Z,101347.07
2022-11-29T06:19:17.430Z,101347.88
2022-11-29T06:24:36.837Z,101353.52
2022-11-29T06:30:09.383Z,101370.69
2022-11-29T06:35:54.167Z,101384.98
2022-11-29T06:41:02.030Z,101390.47
2022-11-29T06:46:26.456Z,101400.42
2022-11-29T06:51:57.969Z,101403.25
2022-11-29T06:57:21.317Z,101402.23
2022-11-29T07:02:51.080Z,101406.36
2022-11-29T07:08:02.621Z,101403.55
2022-11-29T07:13:06.959Z,101402.63
2022-11-29T07:18:19.456Z,101407.38
2022-11-29T07:23:42.392Z,101405.41
2022-11-29T07:29:07.188Z,101405.02
2022-11-29T07:34:32.655Z,101406.81
2022-11-29T07:39:54.412Z,101411.30
2022-11-29T07:45:06.667Z,101412.52
2022-11-29T07:50:11.609Z,101414.47
2022-11-29T07:55:18.907Z,101416.51
2022-11-29T08:00:25.532Z,101418.96
2022-11-29T08:05:28.839Z,101417.84
2022-11-29T08:10:32.056Z,101422.72
2022-11-29T08:15:36.198Z,101425.51
2022-11-29T08:20:41.950Z,101424.21
2022-11-29T08:25:46.181Z,101427.60
2022-11-29T08:30:49.541Z,101431.10
2022-11-29T08:35:52.982Z,101439.33
2022-11-29T08:41:16.296Z,101438.40
2022-11-29T08:46:21.105Z,101443.36
2022-11-29T08:51:24.306Z,101441.58
2022-11-29T09:01:51.956Z,101439.45
2022-11-29T09:06:55.696Z,101442.45
2022-11-29T09:11:58.819Z,101448.14
2022-11-29T09:17:02.099Z,101444.48
2022-11-29T09:22:05.346Z,101436.39
2022-11-29T09:27:08.602Z,101439.83
2022-11-29T09:32:11.820Z,101440.09
2022-11-29T09:37:15.400Z,101436.15
2022-11-29T09:42:47.211Z,101435.06
2022-11-29T09:48:23.433Z,101428.13
2022-11-29T09:53:44.052Z,101428.15
2022-11-29T09:58:55.714Z,101423.11
2022-11-29T10:04:22.530Z,101425.82
2022-11-29T10:09:37.508Z,101432.06
2022-11-29T10:14:56.568Z,101430.50
2022-11-29T10:20:18.952Z,101433.39
2022-11-29T10:25:34.887Z,101432.59
2022-11-29T10:30:41.056Z,101429.64
2022-11-29T10:35:46.435Z,101432.16
2022-11-29T10:40:57.851Z,101435.48
2022-11-29T10:46:02.793Z,101442.54
2022-11-29T10:51:16.283Z,101439.52
2022-11-29T10:56:29.672Z,101444.11
2022-11-29T11:01:37.475Z,101445.96
2022-11-29T11:06:52.593Z,101448.36
2022-11-29T11:12:23.422Z,101452.96
2022-11-29T11:17:32.969Z,101457.33
2022-11-29T11:22:40.112Z,101456.66
2022-11-29T11:27:43.347Z,101457.46
2022-11-29T11:33:14.957Z,101460.09
2022-11-29T11:38:18.215Z,101458.83
2022-11-29T11:43:22.363Z,101459.41
2022-11-29T11:48:25.704Z,101461.80
2022-11-29T11:53:36.743Z,101459.10
2022-11-29T11:58:46.311Z,101457.17
2022-11-29T12:04:20.758Z,101463.11
2022-11-29T12:09:44.079Z,101463.59
2022-11-29T12:14:58.062Z,101466.30
2022-11-29T12:20:14.606Z,101464.33
2022-11-29T12:25:24.583Z,101462.70
2022-11-29T12:30:28.668Z,101469.13
2022-11-29T12:36:00.090Z,101471.46
2022-11-29T12:41:16.906Z,101469.96
2022-11-29T12:46:24.042Z,101472.30
2022-11-29T12:51:51.026Z,101471.55
2022-11-29T12:57:08.267Z,101474.15
2022-11-29T13:02:24.617Z,101473.20
2022-11-29T13:07:57.466Z,101474.77
2022-11-29T13:13:19.301Z,101480.31
2022-11-29T13:18:31.940Z,101483.81
2022-11-29T13:24:07.224Z,101489.66
2022-11-29T13:29:03.760Z,101494.88
2022-11-29T13:34:46.075Z,101501.25
2022-11-29T13:40:09.767Z,101504.79
2022-11-29T13:45:24.822Z,101509.13
2022-11-29T13:50:42.276Z,101509.70
2022-11-29T13:55:47.126Z,101512.31
2022-11-29T14:00:52.695Z,101513.02
2022-11-29T14:06:02.212Z,101517.73
2022-11-29T14:11:14.689Z,101519.07
2022-11-29T14:16:27.092Z,101520.64
2022-11-29T14:22:05.725Z,101518.84
2022-11-29T14:27:10.231Z,101518.23
2022-11-29T14:32:41.557Z,101526.55
2022-11-29T14:38:30.944Z,101525.88
2022-11-29T14:43:38.681Z,101525.35
2022-11-29T14:48:47.668Z,101523.24
2022-11-29T14:54:16.460Z,101528.62
2022-11-29T14:59:44.175Z,101534.56
2022-11-29T15:04:55.016Z,101540.87
2022-11-29T15:10:03.547Z,101542.29
2022-11-29T15:15:32.382Z,101546.52
2022-11-29T15:20:58.297Z,101543.70
2022-11-29T15:26:01.632Z,101540.17
2022-11-29T15:31:11.394Z,101538.24
2022-11-29T15:36:20.868Z,101539.98
2022-11-29T15:41:35.770Z,101549.34
2022-11-29T15:46:39.447Z,101553.14
2022-11-29T15:51:43.042Z,101556.69
2022-11-29T15:57:09.316Z,101552.73
2022-11-29T16:02:24.505Z,101557.26
2022-11-29T16:07:32.999Z,101562.41
2022-11-29T16:12:52.288Z,101566.17
2022-11-29T16:17:55.819Z,101564.98
2022-11-29T16:23:08.230Z,101570.67
2022-11-29T16:28:14.089Z,101574.50
2022-11-29T16:33:25.340Z,101578.34
2022-11-29T16:38:29.089Z,101581.70
2022-11-29T16:43:51.027Z,101580.52
2022-11-29T16:48:56.279Z,101583.54
2022-11-29T16:54:21.566Z,101589.20
2022-11-29T16:59:28.614Z,101590.24
2022-11-29T17:04:33.398Z,101588.45
2022-11-29T17:09:41.367Z,101593.61
2022-11-29T17:14:44.839Z,101593.11
2022-11-29T17:19:50.692Z,101592.13
2022-11-29T17:24:54.343Z,101592.06
2022-11-29T17:29:58.239Z,101597.80
2022-11-29T17:35:01.368Z,101603.64
2022-11-29T17:40:05.341Z,101602.75
2022-11-29T17:45:09.009Z,101605.14
2022-11-29T17:50:13.034Z,101606.83
2022-11-29T17:55:20.496Z,101601.19
2022-11-29T18:00:24.486Z,101606.00
2022-11-29T18:05:34.348Z,101612.66
2022-11-29T18:10:38.188Z,101613.45
2022-11-29T18:15:41.305Z,101612.68
2022-11-29T18:20:44.649Z,101614.96
2022-11-29T18:26:06.860Z,101610.94
2022-11-29T18:31:18.891Z,101616.27
2022-11-29T18:36:28.852Z,101616.70
2022-11-29T18:41:32.517Z,101621.29
2022-11-29T18:46:38.603Z,101619.44
2022-11-29T18:51:45.259Z,101619.20
2022-11-29T18:56:52.473Z,101617.43
2022-11-29T19:01:56.926Z,101618.52
2022-11-29T19:07:00.168Z,101620.72
2022-11-29T19:12:04.303Z,101619.75
2022-11-29T19:17:07.497Z,101620.03
2022-11-29T19:22:10.681Z,101624.82
2022-11-29T19:27:13.838Z,101631.08
2022-11-29T19:32:17.162Z,101626.52
2022-11-29T19:37:20.375Z,101630.20
2022-11-29T19:42:24.091Z,101633.67
2022-11-29T19:47:27.324Z,101638.08
2022-11-29T19:52:30.554Z,101643.70
2022-11-29T19:57:34.036Z,101646.88
2022-11-29T20:02:37.408Z,101647.24
2022-11-29T20:07:40.657Z,101649.27
2022-11-29T20:12:43.846Z,101655.52
2022-11-29T20:17:48.859Z,101654.24
2022-11-29T20:22:52.853Z,101655.89
2022-11-29T20:27:56.293Z,101658.45
2022-11-29T20:32:59.776Z,101663.41
2022-11-29T20:38:28.736Z,101664.42
2022-11-29T20:43:49.485Z,101664.30
2022-11-29T20:48:54.014Z,101665.80
2022-11-29T20:53:59.100Z,101666.67
2022-11-29T20:59:02.300Z,101668.09
2022-11-29T21:04:05.684Z,101667.44
2022-11-29T21:09:10.980Z,101669.25
2022-11-29T21:14:14.439Z,101671.80
2022-11-29T21:19:25.235Z,101674.61
2022-11-29T21:24:37.740Z,101673.67
2022-11-29T21:29:41.385Z,101678.27
2022-11-29T21:34:44.782Z,101681.90
2022-11-29T21:39:51.848Z,101690.24
2022-11-29T21:44:56.247Z,101694.84
2022-11-29T21:50:00.129Z,101695.07
2022-11-29T21:55:03.843Z,101695.52
2022-11-29T22:00:07.716Z,101699.39
2022-11-29T22:05:11.925Z,101701.88
2022-11-29T22:10:18.127Z,101703.83
2022-11-29T22:15:24.883Z,101702.23
2022-11-29T22:20:28.626Z,101702.42
2022-11-29T22:25:32.141Z,101698.98
2022-11-29T22:30:36.159Z,101700.11
2022-11-29T22:35:44.053Z,101701.33
2022-11-29T22:40:47.216Z,101702.64
2022-11-29T22:45:50.527Z,101705.27
2022-11-29T22:51:01.366Z,101701.16
2022-11-29T22:56:07.245Z,101699.89
2022-11-29T23:01:16.061Z,101698.39
2022-11-29T23:06:30.920Z,101698.85
2022-11-29T23:11:34.500Z,101701.00
2022-11-29T23:16:38.039Z,101699.46
2022-11-29T23:21:42.221Z,101697.20
2022-11-29T23:26:47.756Z,101701.82
2022-11-29T23:31:51.152Z,101700.34
2022-11-29T23:36:54.308Z,101699.29
2022-11-29T23:41:57.522Z,101693.21
2022-11-29T23:47:00.700Z,101697.13
2022-11-29T23:52:04.056Z,101696.40
2022-11-29T23:57:07.430Z,101695.77
